sensor_id;sensor_type;location;lat;lon;timestamp;P1;P2;P0
69350;PMS7003;57106;51.446;-2.606;2023-04-30T00:00:48;32;31;
69350;PMS7003;57106;51.446;-2.606;2023-04-30T00:03:13;34;33;
69350;PMS7003;57106;51.446;-2.606;2023-04-30T00:05:39;35;30;
69350;PMS7003;57106;51.446;-2.606;2023-04-30T00:08:04;32;30;
69350;PMS7003;57106;51.446;-2.606;2023-04-30T00:10:29;33;28;
69350;PMS7003;57106;51.446;-2.606;2023-04-30T00:12:54;29;27;
69350;PMS7003;57106;51.446;-2.606;2023-04-30T00:15:19;33;32;
69350;PMS7003;57106;51.446;-2.606;2023-04-30T00:17:45;30;29;
69350;PMS7003;57106;51.446;-2.606;2023-04-30T00:20:11;27;25;
69350;PMS7003;57106;51.446;-2.606;2023-04-30T00:22:35;27;23;
69350;PMS7003;57106;51.446;-2.606;2023-04-30T00:25:01;30;28;
69350;PMS7003;57106;51.446;-2.606;2023-04-30T00:27:27;30;26;
69350;PMS7003;57106;51.446;-2.606;2023-04-30T00:29:52;23;22;
69350;PMS7003;57106;51.446;-2.606;2023-04-30T00:32:18;28;26;
69350;PMS7003;57106;51.446;-2.606;2023-04-30T00:34:43;28;25;
69350;PMS7003;57106;51.446;-2.606;2023-04-30T00:37:08;25;23;
69350;PMS7003;57106;51.446;-2.606;2023-04-30T00:39:34;28;27;
69350;PMS7003;57106;51.446;-2.606;2023-04-30T00:42:00;22;22;
69350;PMS7003;57106;51.446;-2.606;2023-04-30T00:44:25;26;24;
69350;PMS7003;57106;51.446;-2.606;2023-04-30T00:46:50;28;27;
69350;PMS7003;57106;51.446;-2.606;2023-04-30T00:49:16;27;25;
69350;PMS7003;57106;51.446;-2.606;2023-04-30T00:51:41;27;27;
69350;PMS7003;57106;51.446;-2.606;2023-04-30T00:54:07;28;23;
69350;PMS7003;57106;51.446;-2.606;2023-04-30T00:56:32;33;30;
69350;PMS7003;57106;51.446;-2.606;2023-04-30T00:58:58;26;24;
69350;PMS7003;57106;51.446;-2.606;2023-04-30T01:01:23;31;28;
69350;PMS7003;57106;51.446;-2.606;2023-04-30T01:03:49;30;24;
69350;PMS7003;57106;51.446;-2.606;2023-04-30T01:06:14;26;23;
69350;PMS7003;57106;51.446;-2.606;2023-04-30T01:08:40;30;29;
69350;PMS7003;57106;51.446;-2.606;2023-04-30T01:11:16;28;25;
69350;PMS7003;57106;51.446;-2.606;2023-04-30T01:13:33;27;23;
69350;PMS7003;57106;51.446;-2.606;2023-04-30T01:15:59;30;27;
69350;PMS7003;57106;51.446;-2.606;2023-04-30T01:18:24;32;26;
69350;PMS7003;57106;51.446;-2.606;2023-04-30T01:20:46;27;22;
69350;PMS7003;57106;51.446;-2.606;2023-04-30T01:23:13;24;22;
69350;PMS7003;57106;51.446;-2.606;2023-04-30T01:28:04;27;25;
69350;PMS7003;57106;51.446;-2.606;2023-04-30T01:42:35;32;24;
69350;PMS7003;57106;51.446;-2.606;2023-04-30T01:47:29;28;25;
69350;PMS7003;57106;51.446;-2.606;2023-04-30T01:49:54;30;25;
69350;PMS7003;57106;51.446;-2.606;2023-04-30T01:52:16;28;26;
69350;PMS7003;57106;51.446;-2.606;2023-04-30T01:54:42;25;25;
69350;PMS7003;57106;51.446;-2.606;2023-04-30T01:57:06;30;27;
69350;PMS7003;57106;51.446;-2.606;2023-04-30T01:59:32;34;29;
69350;PMS7003;57106;51.446;-2.606;2023-04-30T02:01:56;25;24;
69350;PMS7003;57106;51.446;-2.606;2023-04-30T02:04:22;28;23;
69350;PMS7003;57106;51.446;-2.606;2023-04-30T02:06:48;28;25;
69350;PMS7003;57106;51.446;-2.606;2023-04-30T02:09:13;34;27;
69350;PMS7003;57106;51.446;-2.606;2023-04-30T02:11:38;32;26;
69350;PMS7003;57106;51.446;-2.606;2023-04-30T02:14:04;26;22;
69350;PMS7003;57106;51.446;-2.606;2023-04-30T02:16:35;27;25;
69350;PMS7003;57106;51.446;-2.606;2023-04-30T02:18:55;27;26;
69350;PMS7003;57106;51.446;-2.606;2023-04-30T02:21:20;32;30;
69350;PMS7003;57106;51.446;-2.606;2023-04-30T02:23:45;26;22;
69350;PMS7003;57106;51.446;-2.606;2023-04-30T02:26:11;28;24;
69350;PMS7003;57106;51.446;-2.606;2023-04-30T02:28:37;25;24;
69350;PMS7003;57106;51.446;-2.606;2023-04-30T02:31:02;27;25;
69350;PMS7003;57106;51.446;-2.606;2023-04-30T02:33:28;30;27;
69350;PMS7003;57106;51.446;-2.606;2023-04-30T02:35:53;27;24;
69350;PMS7003;57106;51.446;-2.606;2023-04-30T02:38:19;26;23;
69350;PMS7003;57106;51.446;-2.606;2023-04-30T02:40:44;27;22;
69350;PMS7003;57106;51.446;-2.606;2023-04-30T02:43:09;26;25;
69350;PMS7003;57106;51.446;-2.606;2023-04-30T02:45:35;27;23;
69350;PMS7003;57106;51.446;-2.606;2023-04-30T02:48:00;29;26;
69350;PMS7003;57106;51.446;-2.606;2023-04-30T02:50:26;29;28;
69350;PMS7003;57106;51.446;-2.606;2023-04-30T02:52:51;23;22;
69350;PMS7003;57106;51.446;-2.606;2023-04-30T02:55:16;31;28;
69350;PMS7003;57106;51.446;-2.606;2023-04-30T02:57:42;35;28;
69350;PMS7003;57106;51.446;-2.606;2023-04-30T03:00:08;32;28;
69350;PMS7003;57106;51.446;-2.606;2023-04-30T03:02:33;27;24;
69350;PMS7003;57106;51.446;-2.606;2023-04-30T03:04:59;28;24;
69350;PMS7003;57106;51.446;-2.606;2023-04-30T03:07:24;24;23;
69350;PMS7003;57106;51.446;-2.606;2023-04-30T03:09:50;29;28;
69350;PMS7003;57106;51.446;-2.606;2023-04-30T03:12:15;30;28;
69350;PMS7003;57106;51.446;-2.606;2023-04-30T03:14:40;31;27;
69350;PMS7003;57106;51.446;-2.606;2023-04-30T03:17:06;30;28;
69350;PMS7003;57106;51.446;-2.606;2023-04-30T03:19:31;27;26;
69350;PMS7003;57106;51.446;-2.606;2023-04-30T03:21:57;25;22;
69350;PMS7003;57106;51.446;-2.606;2023-04-30T03:24:22;30;29;
69350;PMS7003;57106;51.446;-2.606;2023-04-30T03:26:48;31;29;
69350;PMS7003;57106;51.446;-2.606;2023-04-30T03:29:13;29;26;
69350;PMS7003;57106;51.446;-2.606;2023-04-30T03:31:39;36;29;
69350;PMS7003;57106;51.446;-2.606;2023-04-30T03:34:04;28;27;
69350;PMS7003;57106;51.446;-2.606;2023-04-30T03:36:30;24;23;
69350;PMS7003;57106;51.446;-2.606;2023-04-30T03:38:55;29;26;
69350;PMS7003;57106;51.446;-2.606;2023-04-30T03:41:21;34;27;
69350;PMS7003;57106;51.446;-2.606;2023-04-30T03:43:46;32;28;
69350;PMS7003;57106;51.446;-2.606;2023-04-30T03:46:11;33;27;
69350;PMS7003;57106;51.446;-2.606;2023-04-30T03:48:36;28;25;
69350;PMS7003;57106;51.446;-2.606;2023-04-30T03:51:02;30;27;
69350;PMS7003;57106;51.446;-2.606;2023-04-30T03:53:28;31;29;
69350;PMS7003;57106;51.446;-2.606;2023-04-30T03:55:53;33;30;
69350;PMS7003;57106;51.446;-2.606;2023-04-30T03:58:19;27;25;
69350;PMS7003;57106;51.446;-2.606;2023-04-30T04:00:44;29;24;
69350;PMS7003;57106;51.446;-2.606;2023-04-30T04:03:09;28;25;
69350;PMS7003;57106;51.446;-2.606;2023-04-30T04:05:35;29;28;
69350;PMS7003;57106;51.446;-2.606;2023-04-30T04:08:00;24;23;
69350;PMS7003;57106;51.446;-2.606;2023-04-30T04:10:25;33;28;
69350;PMS7003;57106;51.446;-2.606;2023-04-30T04:12:51;31;26;
69350;PMS7003;57106;51.446;-2.606;2023-04-30T04:15:17;29;26;
69350;PMS7003;57106;51.446;-2.606;2023-04-30T04:17:42;31;26;
69350;PMS7003;57106;51.446;-2.606;2023-04-30T04:20:08;26;26;
69350;PMS7003;57106;51.446;-2.606;2023-04-30T04:22:34;25;24;
69350;PMS7003;57106;51.446;-2.606;2023-04-30T04:24:59;30;28;
69350;PMS7003;57106;51.446;-2.606;2023-04-30T04:27:24;28;27;
69350;PMS7003;57106;51.446;-2.606;2023-04-30T04:29:49;31;28;
69350;PMS7003;57106;51.446;-2.606;2023-04-30T04:32:15;31;27;
69350;PMS7003;57106;51.446;-2.606;2023-04-30T04:34:40;34;30;
69350;PMS7003;57106;51.446;-2.606;2023-04-30T04:37:05;31;26;
69350;PMS7003;57106;51.446;-2.606;2023-04-30T04:39:31;33;28;
69350;PMS7003;57106;51.446;-2.606;2023-04-30T04:41:57;30;28;
69350;PMS7003;57106;51.446;-2.606;2023-04-30T04:44:22;35;32;
69350;PMS7003;57106;51.446;-2.606;2023-04-30T04:46:48;29;28;
69350;PMS7003;57106;51.446;-2.606;2023-04-30T04:49:13;30;28;
69350;PMS7003;57106;51.446;-2.606;2023-04-30T04:51:39;31;30;
69350;PMS7003;57106;51.446;-2.606;2023-04-30T04:54:04;25;24;
69350;PMS7003;57106;51.446;-2.606;2023-04-30T04:56:29;32;28;
69350;PMS7003;57106;51.446;-2.606;2023-04-30T04:58:55;27;25;
69350;PMS7003;57106;51.446;-2.606;2023-04-30T05:01:20;34;31;
69350;PMS7003;57106;51.446;-2.606;2023-04-30T05:03:46;33;31;
69350;PMS7003;57106;51.446;-2.606;2023-04-30T05:06:11;36;30;
69350;PMS7003;57106;51.446;-2.606;2023-04-30T05:08:37;29;28;
69350;PMS7003;57106;51.446;-2.606;2023-04-30T05:11:02;29;27;
69350;PMS7003;57106;51.446;-2.606;2023-04-30T05:13:28;32;29;
69350;PMS7003;57106;51.446;-2.606;2023-04-30T05:15:53;30;28;
69350;PMS7003;57106;51.446;-2.606;2023-04-30T05:18:19;33;31;
69350;PMS7003;57106;51.446;-2.606;2023-04-30T05:20:45;36;32;
69350;PMS7003;57106;51.446;-2.606;2023-04-30T05:23:10;34;32;
69350;PMS7003;57106;51.446;-2.606;2023-04-30T05:25:35;27;26;
69350;PMS7003;57106;51.446;-2.606;2023-04-30T05:28:01;30;26;
69350;PMS7003;57106;51.446;-2.606;2023-04-30T05:30:26;38;31;
69350;PMS7003;57106;51.446;-2.606;2023-04-30T05:32:52;33;31;
69350;PMS7003;57106;51.446;-2.606;2023-04-30T05:35:17;37;33;
69350;PMS7003;57106;51.446;-2.606;2023-04-30T05:37:43;32;29;
69350;PMS7003;57106;51.446;-2.606;2023-04-30T05:40:09;36;31;
69350;PMS7003;57106;51.446;-2.606;2023-04-30T05:42:34;37;34;
69350;PMS7003;57106;51.446;-2.606;2023-04-30T05:45:00;37;35;
69350;PMS7003;57106;51.446;-2.606;2023-04-30T05:47:26;35;33;
69350;PMS7003;57106;51.446;-2.606;2023-04-30T05:49:54;35;31;
69350;PMS7003;57106;51.446;-2.606;2023-04-30T05:52:17;34;31;
69350;PMS7003;57106;51.446;-2.606;2023-04-30T05:54:42;35;32;
69350;PMS7003;57106;51.446;-2.606;2023-04-30T05:57:08;38;33;
69350;PMS7003;57106;51.446;-2.606;2023-04-30T05:59:33;36;30;
69350;PMS7003;57106;51.446;-2.606;2023-04-30T06:01:59;34;34;
69350;PMS7003;57106;51.446;-2.606;2023-04-30T06:04:25;32;31;
69350;PMS7003;57106;51.446;-2.606;2023-04-30T06:06:51;33;30;
69350;PMS7003;57106;51.446;-2.606;2023-04-30T06:09:15;38;33;
69350;PMS7003;57106;51.446;-2.606;2023-04-30T06:11:41;37;32;
69350;PMS7003;57106;51.446;-2.606;2023-04-30T06:14:07;36;33;
69350;PMS7003;57106;51.446;-2.606;2023-04-30T06:16:32;38;36;
69350;PMS7003;57106;51.446;-2.606;2023-04-30T06:18:57;32;31;
69350;PMS7003;57106;51.446;-2.606;2023-04-30T06:21:22;37;32;
69350;PMS7003;57106;51.446;-2.606;2023-04-30T06:23:48;39;32;
69350;PMS7003;57106;51.446;-2.606;2023-04-30T06:26:14;45;38;
69350;PMS7003;57106;51.446;-2.606;2023-04-30T06:28:39;41;36;
69350;PMS7003;57106;51.446;-2.606;2023-04-30T06:31:04;40;38;
69350;PMS7003;57106;51.446;-2.606;2023-04-30T06:33:29;43;35;
69350;PMS7003;57106;51.446;-2.606;2023-04-30T06:35:54;37;36;
69350;PMS7003;57106;51.446;-2.606;2023-04-30T06:38:20;40;40;
69350;PMS7003;57106;51.446;-2.606;2023-04-30T06:43:11;37;34;
69350;PMS7003;57106;51.446;-2.606;2023-04-30T06:45:36;38;32;
69350;PMS7003;57106;51.446;-2.606;2023-04-30T06:48:01;38;34;
69350;PMS7003;57106;51.446;-2.606;2023-04-30T06:50:27;32;29;
69350;PMS7003;57106;51.446;-2.606;2023-04-30T06:52:52;42;33;
69350;PMS7003;57106;51.446;-2.606;2023-04-30T06:55:18;38;35;
69350;PMS7003;57106;51.446;-2.606;2023-04-30T06:57:44;48;41;
69350;PMS7003;57106;51.446;-2.606;2023-04-30T07:00:10;40;37;
69350;PMS7003;57106;51.446;-2.606;2023-04-30T07:02:35;40;36;
69350;PMS7003;57106;51.446;-2.606;2023-04-30T07:05:00;34;33;
69350;PMS7003;57106;51.446;-2.606;2023-04-30T07:07:26;34;34;
69350;PMS7003;57106;51.446;-2.606;2023-04-30T07:09:51;40;37;
69350;PMS7003;57106;51.446;-2.606;2023-04-30T07:12:16;40;36;
69350;PMS7003;57106;51.446;-2.606;2023-04-30T07:14:41;36;36;
69350;PMS7003;57106;51.446;-2.606;2023-04-30T07:17:07;37;37;
69350;PMS7003;57106;51.446;-2.606;2023-04-30T07:19:33;30;30;
69350;PMS7003;57106;51.446;-2.606;2023-04-30T07:21:58;34;32;
69350;PMS7003;57106;51.446;-2.606;2023-04-30T07:24:24;30;30;
69350;PMS7003;57106;51.446;-2.606;2023-04-30T07:26:49;33;31;
69350;PMS7003;57106;51.446;-2.606;2023-04-30T07:29:14;36;31;
69350;PMS7003;57106;51.446;-2.606;2023-04-30T07:31:40;39;36;
69350;PMS7003;57106;51.446;-2.606;2023-04-30T07:34:05;39;37;
69350;PMS7003;57106;51.446;-2.606;2023-04-30T07:36:31;39;38;
69350;PMS7003;57106;51.446;-2.606;2023-04-30T07:38:56;34;34;
69350;PMS7003;57106;51.446;-2.606;2023-04-30T07:41:21;36;35;
69350;PMS7003;57106;51.446;-2.606;2023-04-30T07:43:46;36;34;
69350;PMS7003;57106;51.446;-2.606;2023-04-30T07:46:11;31;31;
69350;PMS7003;57106;51.446;-2.606;2023-04-30T07:48:37;34;34;
69350;PMS7003;57106;51.446;-2.606;2023-04-30T07:51:02;43;39;
69350;PMS7003;57106;51.446;-2.606;2023-04-30T07:53:28;40;35;
69350;PMS7003;57106;51.446;-2.606;2023-04-30T07:55:53;47;40;
69350;PMS7003;57106;51.446;-2.606;2023-04-30T07:58:19;36;35;
69350;PMS7003;57106;51.446;-2.606;2023-04-30T08:00:44;38;37;
69350;PMS7003;57106;51.446;-2.606;2023-04-30T08:03:09;39;37;
69350;PMS7003;57106;51.446;-2.606;2023-04-30T08:05:35;38;35;
69350;PMS7003;57106;51.446;-2.606;2023-04-30T08:08:00;43;40;
69350;PMS7003;57106;51.446;-2.606;2023-04-30T08:10:25;36;35;
69350;PMS7003;57106;51.446;-2.606;2023-04-30T08:12:52;38;35;
69350;PMS7003;57106;51.446;-2.606;2023-04-30T08:15:15;40;38;
69350;PMS7003;57106;51.446;-2.606;2023-04-30T08:17:40;38;38;
69350;PMS7003;57106;51.446;-2.606;2023-04-30T08:20:06;39;38;
69350;PMS7003;57106;51.446;-2.606;2023-04-30T08:22:31;39;37;
69350;PMS7003;57106;51.446;-2.606;2023-04-30T08:24:57;45;42;
69350;PMS7003;57106;51.446;-2.606;2023-04-30T08:27:22;40;35;
69350;PMS7003;57106;51.446;-2.606;2023-04-30T08:29:47;44;40;
69350;PMS7003;57106;51.446;-2.606;2023-04-30T08:32:13;45;41;
69350;PMS7003;57106;51.446;-2.606;2023-04-30T08:34:39;36;33;
69350;PMS7003;57106;51.446;-2.606;2023-04-30T08:37:04;41;37;
69350;PMS7003;57106;51.446;-2.606;2023-04-30T08:39:30;42;37;
69350;PMS7003;57106;51.446;-2.606;2023-04-30T08:41:55;42;37;
69350;PMS7003;57106;51.446;-2.606;2023-04-30T08:44:21;36;36;
69350;PMS7003;57106;51.446;-2.606;2023-04-30T08:46:46;37;34;
69350;PMS7003;57106;51.446;-2.606;2023-04-30T08:49:11;42;38;
69350;PMS7003;57106;51.446;-2.606;2023-04-30T08:51:37;44;43;
69350;PMS7003;57106;51.446;-2.606;2023-04-30T08:54:03;42;37;
69350;PMS7003;57106;51.446;-2.606;2023-04-30T08:56:28;38;37;
69350;PMS7003;57106;51.446;-2.606;2023-04-30T08:58:54;41;38;
69350;PMS7003;57106;51.446;-2.606;2023-04-30T09:01:19;44;42;
69350;PMS7003;57106;51.446;-2.606;2023-04-30T09:03:44;41;39;
69350;PMS7003;57106;51.446;-2.606;2023-04-30T09:06:14;42;37;
69350;PMS7003;57106;51.446;-2.606;2023-04-30T09:08:41;43;42;
69350;PMS7003;57106;51.446;-2.606;2023-04-30T09:11:00;43;40;
69350;PMS7003;57106;51.446;-2.606;2023-04-30T09:13:38;40;37;
69350;PMS7003;57106;51.446;-2.606;2023-04-30T09:15:51;41;37;
69350;PMS7003;57106;51.446;-2.606;2023-04-30T09:18:17;40;36;
69350;PMS7003;57106;51.446;-2.606;2023-04-30T09:23:07;44;43;
69350;PMS7003;57106;51.446;-2.606;2023-04-30T09:25:38;36;35;
69350;PMS7003;57106;51.446;-2.606;2023-04-30T09:30:29;43;37;
69350;PMS7003;57106;51.446;-2.606;2023-04-30T09:32:54;40;39;
69350;PMS7003;57106;51.446;-2.606;2023-04-30T09:37:40;43;41;
69350;PMS7003;57106;51.446;-2.606;2023-04-30T09:40:06;42;36;
69350;PMS7003;57106;51.446;-2.606;2023-04-30T09:42:31;43;40;
69350;PMS7003;57106;51.446;-2.606;2023-04-30T09:44:57;38;37;
69350;PMS7003;57106;51.446;-2.606;2023-04-30T09:47:22;34;31;
69350;PMS7003;57106;51.446;-2.606;2023-04-30T09:49:48;35;32;
69350;PMS7003;57106;51.446;-2.606;2023-04-30T09:52:14;36;33;
69350;PMS7003;57106;51.446;-2.606;2023-04-30T09:54:37;44;40;
69350;PMS7003;57106;51.446;-2.606;2023-04-30T09:57:02;41;38;
69350;PMS7003;57106;51.446;-2.606;2023-04-30T09:59:28;39;37;
69350;PMS7003;57106;51.446;-2.606;2023-04-30T10:01:53;30;30;
69350;PMS7003;57106;51.446;-2.606;2023-04-30T10:04:18;42;39;
69350;PMS7003;57106;51.446;-2.606;2023-04-30T10:06:43;37;35;
69350;PMS7003;57106;51.446;-2.606;2023-04-30T10:09:09;37;32;
69350;PMS7003;57106;51.446;-2.606;2023-04-30T10:11:35;35;34;
69350;PMS7003;57106;51.446;-2.606;2023-04-30T10:14:01;39;34;
69350;PMS7003;57106;51.446;-2.606;2023-04-30T10:16:28;34;30;
69350;PMS7003;57106;51.446;-2.606;2023-04-30T10:18:51;36;31;
69350;PMS7003;57106;51.446;-2.606;2023-04-30T10:21:15;30;30;
69350;PMS7003;57106;51.446;-2.606;2023-04-30T10:23:41;36;33;
69350;PMS7003;57106;51.446;-2.606;2023-04-30T10:26:06;28;27;
69350;PMS7003;57106;51.446;-2.606;2023-04-30T10:28:31;35;33;
69350;PMS7003;57106;51.446;-2.606;2023-04-30T10:30:57;36;33;
69350;PMS7003;57106;51.446;-2.606;2023-04-30T10:33:28;37;36;
69350;PMS7003;57106;51.446;-2.606;2023-04-30T10:35:48;30;30;
69350;PMS7003;57106;51.446;-2.606;2023-04-30T10:38:14;32;28;
69350;PMS7003;57106;51.446;-2.606;2023-04-30T10:40:39;34;30;
69350;PMS7003;57106;51.446;-2.606;2023-04-30T10:43:04;31;30;
69350;PMS7003;57106;51.446;-2.606;2023-04-30T10:45:34;34;30;
69350;PMS7003;57106;51.446;-2.606;2023-04-30T10:47:56;31;29;
69350;PMS7003;57106;51.446;-2.606;2023-04-30T10:50:21;32;30;
69350;PMS7003;57106;51.446;-2.606;2023-04-30T10:52:46;33;29;
69350;PMS7003;57106;51.446;-2.606;2023-04-30T10:55:15;34;32;
69350;PMS7003;57106;51.446;-2.606;2023-04-30T10:57:41;32;31;
69350;PMS7003;57106;51.446;-2.606;2023-04-30T11:07:17;30;28;
69350;PMS7003;57106;51.446;-2.606;2023-04-30T11:09:43;26;26;
69350;PMS7003;57106;51.446;-2.606;2023-04-30T11:12:10;33;30;
69350;PMS7003;57106;51.446;-2.606;2023-04-30T11:14:33;29;25;
69350;PMS7003;57106;51.446;-2.606;2023-04-30T11:16:59;30;27;
69350;PMS7003;57106;51.446;-2.606;2023-04-30T11:19:24;32;29;
69350;PMS7003;57106;51.446;-2.606;2023-04-30T11:24:15;27;26;
69350;PMS7003;57106;51.446;-2.606;2023-04-30T11:29:06;31;29;
69350;PMS7003;57106;51.446;-2.606;2023-04-30T11:31:32;26;25;
69350;PMS7003;57106;51.446;-2.606;2023-04-30T11:33:57;29;28;
69350;PMS7003;57106;51.446;-2.606;2023-04-30T11:36:23;32;31;
69350;PMS7003;57106;51.446;-2.606;2023-04-30T11:38:48;33;32;
69350;PMS7003;57106;51.446;-2.606;2023-04-30T11:41:13;33;29;
69350;PMS7003;57106;51.446;-2.606;2023-04-30T11:43:40;27;26;
69350;PMS7003;57106;51.446;-2.606;2023-04-30T11:46:05;30;27;
69350;PMS7003;57106;51.446;-2.606;2023-04-30T11:48:30;27;26;
69350;PMS7003;57106;51.446;-2.606;2023-04-30T11:50:55;31;28;
69350;PMS7003;57106;51.446;-2.606;2023-04-30T11:53:25;33;33;
69350;PMS7003;57106;51.446;-2.606;2023-04-30T11:55:46;32;27;
69350;PMS7003;57106;51.446;-2.606;2023-04-30T11:58:12;29;28;
69350;PMS7003;57106;51.446;-2.606;2023-04-30T12:00:37;38;35;
69350;PMS7003;57106;51.446;-2.606;2023-04-30T12:03:03;37;32;
69350;PMS7003;57106;51.446;-2.606;2023-04-30T12:05:28;30;29;
69350;PMS7003;57106;51.446;-2.606;2023-04-30T12:07:55;35;33;
69350;PMS7003;57106;51.446;-2.606;2023-04-30T12:10:19;30;29;
69350;PMS7003;57106;51.446;-2.606;2023-04-30T12:12:46;29;29;
69350;PMS7003;57106;51.446;-2.606;2023-04-30T12:15:10;35;33;
69350;PMS7003;57106;51.446;-2.606;2023-04-30T12:17:35;36;33;
69350;PMS7003;57106;51.446;-2.606;2023-04-30T12:20:00;33;32;
69350;PMS7003;57106;51.446;-2.606;2023-04-30T12:22:25;40;38;
69350;PMS7003;57106;51.446;-2.606;2023-04-30T12:24:50;34;31;
69350;PMS7003;57106;51.446;-2.606;2023-04-30T12:27:16;30;30;
69350;PMS7003;57106;51.446;-2.606;2023-04-30T12:29:42;33;31;
69350;PMS7003;57106;51.446;-2.606;2023-04-30T12:32:08;28;26;
69350;PMS7003;57106;51.446;-2.606;2023-04-30T12:34:33;29;28;
69350;PMS7003;57106;51.446;-2.606;2023-04-30T12:36:59;28;26;
69350;PMS7003;57106;51.446;-2.606;2023-04-30T12:39:24;29;28;
69350;PMS7003;57106;51.446;-2.606;2023-04-30T12:41:49;29;28;
69350;PMS7003;57106;51.446;-2.606;2023-04-30T12:44:16;29;27;
69350;PMS7003;57106;51.446;-2.606;2023-04-30T12:46:40;29;26;
69350;PMS7003;57106;51.446;-2.606;2023-04-30T12:49:05;27;24;
69350;PMS7003;57106;51.446;-2.606;2023-04-30T12:51:32;23;22;
69350;PMS7003;57106;51.446;-2.606;2023-04-30T12:53:57;28;27;
69350;PMS7003;57106;51.446;-2.606;2023-04-30T12:56:21;26;23;
69350;PMS7003;57106;51.446;-2.606;2023-04-30T12:58:47;27;24;
69350;PMS7003;57106;51.446;-2.606;2023-04-30T13:01:15;24;23;
69350;PMS7003;57106;51.446;-2.606;2023-04-30T13:03:38;22;21;
69350;PMS7003;57106;51.446;-2.606;2023-04-30T13:06:04;25;23;
69350;PMS7003;57106;51.446;-2.606;2023-04-30T13:08:29;26;25;
69350;PMS7003;57106;51.446;-2.606;2023-04-30T13:10:55;23;21;
69350;PMS7003;57106;51.446;-2.606;2023-04-30T13:13:20;20;18;
69350;PMS7003;57106;51.446;-2.606;2023-04-30T13:15:45;19;18;
69350;PMS7003;57106;51.446;-2.606;2023-04-30T13:18:11;16;16;
69350;PMS7003;57106;51.446;-2.606;2023-04-30T13:20:37;20;19;
69350;PMS7003;57106;51.446;-2.606;2023-04-30T13:23:02;19;19;
69350;PMS7003;57106;51.446;-2.606;2023-04-30T13:25:27;21;19;
69350;PMS7003;57106;51.446;-2.606;2023-04-30T13:27:53;17;16;
69350;PMS7003;57106;51.446;-2.606;2023-04-30T13:30:18;19;15;
69350;PMS7003;57106;51.446;-2.606;2023-04-30T13:32:43;21;18;
69350;PMS7003;57106;51.446;-2.606;2023-04-30T13:35:09;20;17;
69350;PMS7003;57106;51.446;-2.606;2023-04-30T13:37:34;19;19;
69350;PMS7003;57106;51.446;-2.606;2023-04-30T13:39:59;18;16;
69350;PMS7003;57106;51.446;-2.606;2023-04-30T13:42:25;16;15;
69350;PMS7003;57106;51.446;-2.606;2023-04-30T13:44:50;18;18;
69350;PMS7003;57106;51.446;-2.606;2023-04-30T13:47:15;18;17;
69350;PMS7003;57106;51.446;-2.606;2023-04-30T13:49:41;17;17;
69350;PMS7003;57106;51.446;-2.606;2023-04-30T13:52:07;21;18;
69350;PMS7003;57106;51.446;-2.606;2023-04-30T13:54:32;22;19;
69350;PMS7003;57106;51.446;-2.606;2023-04-30T13:56:58;21;19;
69350;PMS7003;57106;51.446;-2.606;2023-04-30T13:59:23;17;16;
69350;PMS7003;57106;51.446;-2.606;2023-04-30T14:01:49;19;18;
69350;PMS7003;57106;51.446;-2.606;2023-04-30T14:04:14;18;15;
69350;PMS7003;57106;51.446;-2.606;2023-04-30T14:06:44;18;17;
69350;PMS7003;57106;51.446;-2.606;2023-04-30T14:09:04;20;18;
69350;PMS7003;57106;51.446;-2.606;2023-04-30T14:11:30;19;18;
69350;PMS7003;57106;51.446;-2.606;2023-04-30T14:13:55;20;18;
69350;PMS7003;57106;51.446;-2.606;2023-04-30T14:16:20;19;19;
69350;PMS7003;57106;51.446;-2.606;2023-04-30T14:18:45;20;20;
69350;PMS7003;57106;51.446;-2.606;2023-04-30T14:21:11;18;17;
69350;PMS7003;57106;51.446;-2.606;2023-04-30T14:23:37;20;18;
69350;PMS7003;57106;51.446;-2.606;2023-04-30T14:26:02;19;18;
69350;PMS7003;57106;51.446;-2.606;2023-04-30T14:28:28;19;18;
69350;PMS7003;57106;51.446;-2.606;2023-04-30T14:30:54;19;17;
69350;PMS7003;57106;51.446;-2.606;2023-04-30T14:33:20;20;19;
69350;PMS7003;57106;51.446;-2.606;2023-04-30T14:35:45;19;18;
69350;PMS7003;57106;51.446;-2.606;2023-04-30T14:38:10;19;18;
69350;PMS7003;57106;51.446;-2.606;2023-04-30T14:40:35;13;13;
69350;PMS7003;57106;51.446;-2.606;2023-04-30T14:43:01;14;14;
69350;PMS7003;57106;51.446;-2.606;2023-04-30T14:45:27;17;15;
69350;PMS7003;57106;51.446;-2.606;2023-04-30T14:47:52;18;16;
69350;PMS7003;57106;51.446;-2.606;2023-04-30T14:50:18;14;14;
69350;PMS7003;57106;51.446;-2.606;2023-04-30T14:52:43;16;14;
69350;PMS7003;57106;51.446;-2.606;2023-04-30T14:55:09;15;14;
69350;PMS7003;57106;51.446;-2.606;2023-04-30T14:57:34;12;12;
69350;PMS7003;57106;51.446;-2.606;2023-04-30T15:00:00;16;13;
69350;PMS7003;57106;51.446;-2.606;2023-04-30T15:02:25;13;12;
69350;PMS7003;57106;51.446;-2.606;2023-04-30T15:04:51;15;13;
69350;PMS7003;57106;51.446;-2.606;2023-04-30T15:07:17;18;16;
69350;PMS7003;57106;51.446;-2.606;2023-04-30T15:09:42;12;12;
69350;PMS7003;57106;51.446;-2.606;2023-04-30T15:12:07;13;13;
69350;PMS7003;57106;51.446;-2.606;2023-04-30T15:14:33;14;14;
69350;PMS7003;57106;51.446;-2.606;2023-04-30T15:16:58;12;12;
69350;PMS7003;57106;51.446;-2.606;2023-04-30T15:19:24;14;13;
69350;PMS7003;57106;51.446;-2.606;2023-04-30T15:21:49;15;15;
69350;PMS7003;57106;51.446;-2.606;2023-04-30T15:24:15;20;17;
69350;PMS7003;57106;51.446;-2.606;2023-04-30T15:26:41;13;13;
69350;PMS7003;57106;51.446;-2.606;2023-04-30T15:29:06;20;17;
69350;PMS7003;57106;51.446;-2.606;2023-04-30T15:31:32;17;15;
69350;PMS7003;57106;51.446;-2.606;2023-04-30T15:33:57;17;17;
69350;PMS7003;57106;51.446;-2.606;2023-04-30T15:38:47;17;16;
69350;PMS7003;57106;51.446;-2.606;2023-04-30T15:41:12;15;14;
69350;PMS7003;57106;51.446;-2.606;2023-04-30T15:43:38;16;15;
69350;PMS7003;57106;51.446;-2.606;2023-04-30T15:46:03;17;17;
69350;PMS7003;57106;51.446;-2.606;2023-04-30T15:48:29;16;15;
69350;PMS7003;57106;51.446;-2.606;2023-04-30T15:50:54;18;18;
69350;PMS7003;57106;51.446;-2.606;2023-04-30T15:53:20;15;15;
69350;PMS7003;57106;51.446;-2.606;2023-04-30T15:55:46;19;19;
69350;PMS7003;57106;51.446;-2.606;2023-04-30T15:58:11;18;16;
69350;PMS7003;57106;51.446;-2.606;2023-04-30T16:00:37;18;16;
69350;PMS7003;57106;51.446;-2.606;2023-04-30T16:03:04;20;18;
69350;PMS7003;57106;51.446;-2.606;2023-04-30T16:05:29;18;17;
69350;PMS7003;57106;51.446;-2.606;2023-04-30T16:07:55;36;32;
69350;PMS7003;57106;51.446;-2.606;2023-04-30T16:10:20;20;20;
69350;PMS7003;57106;51.446;-2.606;2023-04-30T16:12:45;26;23;
69350;PMS7003;57106;51.446;-2.606;2023-04-30T16:15:11;42;38;
69350;PMS7003;57106;51.446;-2.606;2023-04-30T16:17:36;37;37;
69350;PMS7003;57106;51.446;-2.606;2023-04-30T16:20:02;32;27;
69350;PMS7003;57106;51.446;-2.606;2023-04-30T16:22:27;58;51;
69350;PMS7003;57106;51.446;-2.606;2023-04-30T16:24:52;43;39;
69350;PMS7003;57106;51.446;-2.606;2023-04-30T16:27:18;38;33;
69350;PMS7003;57106;51.446;-2.606;2023-04-30T16:29:44;50;48;